createdAt,value
2022-09-28T00:00:02.632Z,100.00
2022-09-28T00:02:30.429Z,100.00
2022-09-28T00:04:58.069Z,100.00
2022-09-28T00:07:25.653Z,100.00
2022-09-28T00:09:53.231Z,100.00
2022-09-28T00:12:21.720Z,100.00
2022-09-28T00:14:51.170Z,100.00
2022-09-28T00:17:22.123Z,100.00
2022-09-28T00:19:49.655Z,100.00
2022-09-28T00:22:17.193Z,100.00
2022-09-28T00:24:44.730Z,100.00
2022-09-28T00:27:12.533Z,100.00
2022-09-28T00:29:40.107Z,100.00
2022-09-28T00:32:11.787Z,100.00
2022-09-28T00:34:42.318Z,100.00
2022-09-28T00:37:10.612Z,100.00
2022-09-28T00:39:41.163Z,100.00
2022-09-28T00:42:14.579Z,100.00
2022-09-28T00:44:48.724Z,100.00
2022-09-28T00:47:38.903Z,100.00
2022-09-28T00:50:09.955Z,100.00
2022-09-28T00:52:44.123Z,100.00
2022-09-28T00:55:15.083Z,100.00
2022-09-28T00:57:45.582Z,100.00
2022-09-28T01:00:14.455Z,100.00
2022-09-28T01:02:43.647Z,100.00
2022-09-28T01:05:11.369Z,100.00
2022-09-28T01:07:39.299Z,100.00
2022-09-28T01:10:07.352Z,100.00
2022-09-28T01:12:34.975Z,100.00
2022-09-28T01:15:02.926Z,100.00
2022-09-28T01:17:38.085Z,100.00
2022-09-28T01:20:35.029Z,100.00
2022-09-28T01:23:38.594Z,100.00
2022-09-28T01:26:35.973Z,100.00
2022-09-28T01:29:06.306Z,100.00
2022-09-28T01:31:35.011Z,100.00
2022-09-28T01:34:06.168Z,100.00
2022-09-28T01:36:36.671Z,100.00
2022-09-28T01:39:06.852Z,100.00
2022-09-28T01:41:38.039Z,100.00
2022-09-28T01:44:08.632Z,100.00
2022-09-28T01:46:41.949Z,100.00
2022-09-28T01:49:12.607Z,100.00
2022-09-28T01:51:43.207Z,100.00
2022-09-28T01:54:13.841Z,100.00
2022-09-28T01:56:44.489Z,100.00
2022-09-28T01:59:14.973Z,100.00
2022-09-28T02:01:45.333Z,100.00
2022-09-28T02:04:15.890Z,100.00
2022-09-28T02:06:47.622Z,100.00
2022-09-28T02:09:18.101Z,100.00
2022-09-28T02:11:51.516Z,100.00
2022-09-28T02:14:19.680Z,100.00
2022-09-28T02:16:48.601Z,100.00
2022-09-28T02:19:18.352Z,100.00
2022-09-28T02:21:52.669Z,100.00
2022-09-28T02:24:24.689Z,100.00
2022-09-28T02:26:56.409Z,100.00
2022-09-28T02:29:24.357Z,100.00
2022-09-28T02:31:52.512Z,100.00
2022-09-28T02:34:20.089Z,100.00
2022-09-28T02:36:48.040Z,100.00
2022-09-28T02:39:16.988Z,100.00
2022-09-28T02:41:55.713Z,100.00
2022-09-28T02:44:43.270Z,100.00
2022-09-28T02:47:17.813Z,100.00
2022-09-28T02:49:51.139Z,100.00
2022-09-28T02:52:35.504Z,100.00
2022-09-28T02:55:17.557Z,100.00
2022-09-28T02:57:59.479Z,100.00
2022-09-28T03:00:27.938Z,100.00
2022-09-28T03:03:02.679Z,100.00
2022-09-28T03:05:33.164Z,100.00
2022-09-28T03:08:02.933Z,100.00
2022-09-28T03:10:36.485Z,100.00
2022-09-28T03:13:05.723Z,100.00
2022-09-28T03:15:34.205Z,100.00
2022-09-28T03:18:01.923Z,100.00
2022-09-28T03:20:31.146Z,100.00
2022-09-28T03:25:46.242Z,100.00
2022-09-28T03:28:15.144Z,100.00
2022-09-28T03:30:43.393Z,100.00
2022-09-28T03:33:10.906Z,100.00
2022-09-28T03:35:38.429Z,100.00
2022-09-28T03:38:05.989Z,100.00
2022-09-28T03:40:33.553Z,100.00
2022-09-28T03:43:01.188Z,100.00
2022-09-28T03:45:30.128Z,100.00
2022-09-28T03:47:57.710Z,100.00
2022-09-28T03:50:25.364Z,100.00
2022-09-28T03:52:52.876Z,100.00
2022-09-28T03:55:20.477Z,100.00
2022-09-28T03:57:54.270Z,100.00
2022-09-28T04:00:22.006Z,100.00
2022-09-28T04:02:50.895Z,100.00
2022-09-28T04:05:18.414Z,100.00
2022-09-28T04:07:45.933Z,100.00
2022-09-28T04:10:13.438Z,100.00
2022-09-28T04:12:40.936Z,100.00
2022-09-28T04:15:09.163Z,100.00
2022-09-28T04:17:40.145Z,100.00
2022-09-28T04:20:10.178Z,100.00
2022-09-28T04:22:38.220Z,100.00
2022-09-28T04:25:06.338Z,100.00
2022-09-28T04:27:51.368Z,100.00
2022-09-28T04:30:19.068Z,100.00
2022-09-28T04:32:47.108Z,100.00
2022-09-28T04:35:16.059Z,100.00
2022-09-28T04:37:43.595Z,100.00
2022-09-28T04:40:11.827Z,100.00
2022-09-28T04:42:39.374Z,100.00
2022-09-28T04:45:08.252Z,100.00
2022-09-28T04:47:35.779Z,100.00
2022-09-28T04:50:03.282Z,100.00
2022-09-28T04:52:32.167Z,100.00
2022-09-28T04:54:59.682Z,100.00
2022-09-28T04:57:27.238Z,100.00
2022-09-28T04:59:54.754Z,100.00
2022-09-28T05:02:22.348Z,100.00
2022-09-28T05:04:49.906Z,100.00
2022-09-28T05:07:17.417Z,100.00
2022-09-28T05:09:46.284Z,100.00
2022-09-28T05:12:13.806Z,100.00
2022-09-28T05:14:41.962Z,100.00
2022-09-28T05:17:10.449Z,100.00
2022-09-28T05:19:38.054Z,100.00
2022-09-28T05:22:07.176Z,100.00
2022-09-28T05:24:34.811Z,100.00
2022-09-28T05:27:03.695Z,100.00
2022-09-28T05:29:32.355Z,100.00
2022-09-28T05:32:01.378Z,100.00
2022-09-28T05:34:29.355Z,100.00
2022-09-28T05:36:56.934Z,100.00
2022-09-28T05:39:24.550Z,100.00
2022-09-28T05:41:52.097Z,100.00
2022-09-28T05:44:20.966Z,100.00
2022-09-28T05:46:48.479Z,100.00
2022-09-28T05:49:15.968Z,100.00
2022-09-28T05:51:43.490Z,100.00
2022-09-28T05:54:11.156Z,100.00
2022-09-28T05:56:38.674Z,100.00
2022-09-28T05:59:06.223Z,100.00
2022-09-28T06:01:35.184Z,100.00
2022-09-28T06:04:02.737Z,100.00
2022-09-28T06:06:30.224Z,100.00
2022-09-28T06:08:57.809Z,100.00
2022-09-28T06:11:27.782Z,100.00
2022-09-28T06:13:57.622Z,100.00
2022-09-28T06:16:25.623Z,100.00
2022-09-28T06:18:54.617Z,100.00
2022-09-28T06:21:22.145Z,100.00
2022-09-28T06:23:49.690Z,100.00
2022-09-28T06:26:17.511Z,100.00
2022-09-28T06:28:45.065Z,100.00
2022-09-28T06:31:12.662Z,100.00
2022-09-28T06:33:42.007Z,100.00
2022-09-28T06:36:13.680Z,100.00
2022-09-28T06:38:41.256Z,100.00
2022-09-28T06:41:08.975Z,100.00
2022-09-28T06:43:36.702Z,100.00
2022-09-28T06:46:04.394Z,100.00
2022-09-28T06:48:33.965Z,100.00
2022-09-28T06:51:02.201Z,100.00
2022-09-28T06:53:31.338Z,100.00
2022-09-28T06:55:59.046Z,100.00
2022-09-28T06:58:28.143Z,100.00
2022-09-28T07:00:58.603Z,100.00
2022-09-28T07:03:26.580Z,100.00
2022-09-28T07:05:55.252Z,100.00
2022-09-28T07:08:24.561Z,100.00
2022-09-28T07:10:56.134Z,100.00
2022-09-28T07:13:47.515Z,100.00
2022-09-28T07:16:12.252Z,100.00
2022-09-28T07:18:40.416Z,100.00
2022-09-28T07:21:12.737Z,100.00
2022-09-28T07:23:53.455Z,100.00
2022-09-28T07:26:24.553Z,100.00
2022-09-28T07:28:52.395Z,100.00
2022-09-28T07:31:20.163Z,100.00
2022-09-28T07:33:51.105Z,100.00
2022-09-28T07:36:20.813Z,100.00
2022-09-28T07:38:48.855Z,100.00
2022-09-28T07:41:21.487Z,98.59
2022-09-28T07:43:50.821Z,97.26
2022-09-28T07:46:18.386Z,97.11
2022-09-28T07:48:46.046Z,97.48
2022-09-28T07:51:13.645Z,98.31
2022-09-28T07:53:41.250Z,97.31
2022-09-28T07:56:09.883Z,96.90
2022-09-28T07:58:38.868Z,96.74
2022-09-28T08:01:10.379Z,96.03
2022-09-28T08:03:39.029Z,95.40
2022-09-28T08:06:09.795Z,93.65
2022-09-28T08:08:37.832Z,94.48
2022-09-28T08:11:08.346Z,92.47
2022-09-28T08:13:35.836Z,90.93
2022-09-28T08:16:04.348Z,91.20
2022-09-28T08:18:33.205Z,87.96
2022-09-28T08:21:18.571Z,89.16
2022-09-28T08:23:46.199Z,90.52
2022-09-28T08:26:15.722Z,88.71
2022-09-28T08:28:44.872Z,86.62
2022-09-28T08:31:12.464Z,85.86
2022-09-28T08:33:42.005Z,87.00
2022-09-28T08:36:10.424Z,86.52
2022-09-28T08:38:38.018Z,85.98
2022-09-28T08:41:16.593Z,85.98
2022-09-28T08:43:56.809Z,85.27
2022-09-28T08:46:27.148Z,86.28
2022-09-28T08:49:23.834Z,85.33
2022-09-28T08:51:52.338Z,85.64
2022-09-28T08:54:29.153Z,83.86
2022-09-28T08:56:59.230Z,82.97
2022-09-28T08:59:29.709Z,82.63
2022-09-28T09:02:00.711Z,83.90
2022-09-28T09:04:29.752Z,83.23
2022-09-28T09:07:12.661Z,83.07
2022-09-28T09:09:49.183Z,79.14
2022-09-28T09:12:21.424Z,78.96
2022-09-28T09:15:08.519Z,78.20
2022-09-28T09:17:43.128Z,77.80
2022-09-28T09:20:19.283Z,78.03
2022-09-28T09:22:56.638Z,78.86
2022-09-28T09:25:28.237Z,77.98
2022-09-28T09:28:38.202Z,79.98
2022-09-28T09:31:09.794Z,79.36
2022-09-28T09:34:00.403Z,80.60
2022-09-28T09:36:38.372Z,80.15
2022-09-28T09:39:18.614Z,78.72
2022-09-28T09:41:55.436Z,78.33
2022-09-28T09:44:34.975Z,79.52
2022-09-28T09:47:07.731Z,80.56
2022-09-28T09:49:37.796Z,79.69
2022-09-28T09:52:11.521Z,78.34
2022-09-28T09:54:40.849Z,78.70
2022-09-28T09:57:12.394Z,78.14
2022-09-28T09:59:42.004Z,79.10
2022-09-28T10:02:22.335Z,78.57
2022-09-28T10:04:51.647Z,77.44
2022-09-28T10:07:24.532Z,77.43
2022-09-28T10:09:55.259Z,76.95
2022-09-28T10:12:23.567Z,76.96
2022-09-28T10:14:51.132Z,75.28
2022-09-28T10:17:26.885Z,75.06
2022-09-28T10:19:56.682Z,74.44
2022-09-28T10:22:28.135Z,73.65
2022-09-28T10:24:58.361Z,74.13
2022-09-28T10:27:28.521Z,74.88
2022-09-28T10:29:58.906Z,75.84
2022-09-28T10:32:27.751Z,75.61
2022-09-28T10:35:22.581Z,77.91
2022-09-28T10:37:55.070Z,77.20
2022-09-28T10:40:34.634Z,75.99
2022-09-28T10:43:03.467Z,75.54
2022-09-28T10:45:36.765Z,74.81
2022-09-28T10:48:07.602Z,74.89
2022-09-28T10:50:35.504Z,76.98
2022-09-28T10:53:19.417Z,75.17
2022-09-28T10:55:59.215Z,74.19
2022-09-28T10:58:29.164Z,74.64
2022-09-28T11:01:02.404Z,72.77
2022-09-28T11:03:30.983Z,72.81
2022-09-28T11:06:01.192Z,73.85
2022-09-28T11:08:32.795Z,73.60
2022-09-28T11:11:05.978Z,73.75
2022-09-28T11:13:40.296Z,72.31
2022-09-28T11:16:08.018Z,71.20
2022-09-28T11:18:35.596Z,72.04
2022-09-28T11:21:13.159Z,73.51
2022-09-28T11:23:44.115Z,72.11
2022-09-28T11:26:18.190Z,71.41
2022-09-28T11:28:51.864Z,71.98
2022-09-28T11:31:26.201Z,71.15
2022-09-28T11:34:03.792Z,72.57
2022-09-28T11:36:41.548Z,72.77
2022-09-28T11:39:12.897Z,73.35
2022-09-28T11:41:50.357Z,73.40
2022-09-28T11:44:46.323Z,72.26
2022-09-28T11:47:36.252Z,71.59
2022-09-28T11:50:10.481Z,72.76
2022-09-28T11:52:49.467Z,73.24
2022-09-28T11:55:26.893Z,72.01
2022-09-28T11:58:01.357Z,71.35
2022-09-28T12:00:32.413Z,71.13
2022-09-28T12:03:05.320Z,70.39
2022-09-28T12:05:38.698Z,70.10
2022-09-28T12:08:09.945Z,70.21
2022-09-28T12:10:45.361Z,69.74
2022-09-28T12:13:15.809Z,69.15
2022-09-28T12:16:13.284Z,70.90
2022-09-28T12:18:39.917Z,71.35
2022-09-28T12:21:27.038Z,71.58
2022-09-28T12:23:57.469Z,70.96
2022-09-28T12:26:35.841Z,70.46
2022-09-28T12:29:08.949Z,69.78
2022-09-28T12:31:40.371Z,71.36
2022-09-28T12:34:11.155Z,70.14
2022-09-28T12:36:47.491Z,70.72
2022-09-28T12:39:56.907Z,69.44
2022-09-28T12:42:42.307Z,69.69
2022-09-28T12:45:23.289Z,69.08
2022-09-28T12:48:07.774Z,69.68
2022-09-28T12:50:47.497Z,67.87
2022-09-28T12:53:29.648Z,69.51
2022-09-28T12:56:02.922Z,69.95
2022-09-28T12:58:41.834Z,70.23
2022-09-28T13:01:23.121Z,70.33
2022-09-28T13:04:26.111Z,68.38
2022-09-28T13:06:58.292Z,67.73
2022-09-28T13:09:27.538Z,65.92
2022-09-28T13:12:06.537Z,66.68
2022-09-28T13:15:09.869Z,67.24
2022-09-28T13:17:43.873Z,67.43
2022-09-28T13:20:23.335Z,67.45
2022-09-28T13:22:56.443Z,69.35
2022-09-28T13:25:28.021Z,68.97
2022-09-28T13:27:59.199Z,67.91
2022-09-28T13:30:28.650Z,68.93
2022-09-28T13:32:58.731Z,68.78
2022-09-28T13:35:26.849Z,68.58
2022-09-28T13:38:45.601Z,69.18
2022-09-28T13:41:16.621Z,69.15
2022-09-28T13:43:56.981Z,67.90
2022-09-28T13:46:32.395Z,68.32
2022-09-28T13:49:05.311Z,68.44
2022-09-28T13:51:41.043Z,68.49
2022-09-28T13:54:22.898Z,67.57
2022-09-28T13:56:55.260Z,67.20
2022-09-28T13:59:27.322Z,67.96
2022-09-28T14:02:06.865Z,68.45
2022-09-28T14:04:56.236Z,68.91
2022-09-28T14:10:17.848Z,69.22
2022-09-28T14:12:48.054Z,67.87
2022-09-28T14:15:45.175Z,68.34
2022-09-28T14:18:28.162Z,68.59
2022-09-28T14:21:22.032Z,68.20
2022-09-28T14:24:01.734Z,68.48
2022-09-28T14:26:53.832Z,69.11
2022-09-28T14:29:28.614Z,69.85
2022-09-28T14:31:58.329Z,69.20
2022-09-28T14:34:34.173Z,69.53
2022-09-28T14:37:21.454Z,68.93
2022-09-28T14:40:06.724Z,70.23
2022-09-28T14:42:35.082Z,70.14
2022-09-28T14:45:35.762Z,70.63
2022-09-28T14:48:20.378Z,69.54
2022-09-28T14:50:49.976Z,70.19
2022-09-28T14:57:09.244Z,70.08
2022-09-28T14:59:43.470Z,69.70
2022-09-28T15:02:17.432Z,70.57
2022-09-28T15:04:46.913Z,70.38
2022-09-28T15:07:22.345Z,70.64
2022-09-28T15:09:51.363Z,69.92
2022-09-28T15:12:20.969Z,69.89
2022-09-28T15:14:53.588Z,70.69
2022-09-28T15:17:23.545Z,72.15
2022-09-28T15:20:03.077Z,72.40
2022-09-28T15:22:32.994Z,71.98
2022-09-28T15:25:03.147Z,72.69
2022-09-28T15:27:35.585Z,73.78
2022-09-28T15:30:12.453Z,72.17
2022-09-28T15:32:40.061Z,71.02
2022-09-28T15:35:14.388Z,71.28
2022-09-28T15:37:43.741Z,72.03
2022-09-28T15:40:14.930Z,72.37
2022-09-28T15:42:42.542Z,72.04
2022-09-28T15:45:26.619Z,72.99
2022-09-28T15:47:58.445Z,73.88
2022-09-28T15:50:28.007Z,73.84
2022-09-28T15:52:58.408Z,74.24
2022-09-28T15:55:28.517Z,74.95
2022-09-28T15:58:17.084Z,75.12
2022-09-28T16:00:46.292Z,75.14
2022-09-28T16:03:24.952Z,75.64
2022-09-28T16:05:53.757Z,76.03
2022-09-28T16:08:25.611Z,76.40
2022-09-28T16:10:56.487Z,76.80
2022-09-28T16:13:24.368Z,76.44
2022-09-28T16:15:57.893Z,75.25
2022-09-28T16:18:26.711Z,75.96
2022-09-28T16:20:56.086Z,76.31
2022-09-28T16:23:28.028Z,75.80
2022-09-28T16:25:58.835Z,76.02
2022-09-28T16:28:48.889Z,76.47
2022-09-28T16:31:29.394Z,76.16
2022-09-28T16:33:59.212Z,76.98
2022-09-28T16:36:29.748Z,77.27
2022-09-28T16:38:58.738Z,78.29
2022-09-28T16:41:28.840Z,79.78
2022-09-28T16:44:00.795Z,80.44
2022-09-28T16:46:32.133Z,80.76
2022-09-28T16:48:59.817Z,80.90
2022-09-28T16:51:27.792Z,81.28
2022-09-28T16:54:13.044Z,81.19
2022-09-28T16:56:41.961Z,81.87
2022-09-28T16:59:13.667Z,81.91
2022-09-28T17:01:43.768Z,81.40
2022-09-28T17:04:12.074Z,81.78
2022-09-28T17:06:39.800Z,82.70
2022-09-28T17:09:07.865Z,83.03
2022-09-28T17:11:35.484Z,82.33
2022-09-28T17:14:04.376Z,82.86
2022-09-28T17:17:06.147Z,82.94
2022-09-28T17:19:23.757Z,82.34
2022-09-28T17:21:52.125Z,82.61
2022-09-28T17:24:20.472Z,83.07
2022-09-28T17:26:50.285Z,82.62
2022-09-28T17:29:19.532Z,82.02
2022-09-28T17:31:47.668Z,81.98
2022-09-28T17:34:16.673Z,81.39
2022-09-28T17:36:44.960Z,81.33
2022-09-28T17:39:13.296Z,81.04
2022-09-28T17:41:41.091Z,81.15
2022-09-28T17:44:08.667Z,80.86
2022-09-28T17:46:39.636Z,81.09
2022-09-28T17:49:09.354Z,81.12
2022-09-28T17:51:37.977Z,81.46
2022-09-28T17:54:06.785Z,81.81
2022-09-28T17:56:35.177Z,81.67
2022-09-28T17:59:04.783Z,82.00
2022-09-28T18:01:34.935Z,81.88
2022-09-28T18:04:05.170Z,81.72
2022-09-28T18:06:33.509Z,82.48
2022-09-28T18:09:02.080Z,83.24
2022-09-28T18:11:29.925Z,83.62
2022-09-28T18:13:57.489Z,83.70
2022-09-28T18:16:25.984Z,83.67
2022-09-28T18:18:53.509Z,83.60
2022-09-28T18:21:22.420Z,83.99
2022-09-28T18:23:50.054Z,84.06
2022-09-28T18:26:19.410Z,84.18
2022-09-28T18:28:47.837Z,84.47
2022-09-28T18:31:18.970Z,84.55
2022-09-28T18:33:48.297Z,84.54
2022-09-28T18:36:15.873Z,84.87
2022-09-28T18:38:44.768Z,85.40
2022-09-28T18:41:15.208Z,86.12
2022-09-28T18:43:43.173Z,86.61
2022-09-28T18:46:11.696Z,86.78
2022-09-28T18:48:40.416Z,87.25
2022-09-28T18:51:09.393Z,87.83
2022-09-28T18:53:37.289Z,87.55
2022-09-28T18:56:10.859Z,88.56
2022-09-28T18:58:39.170Z,88.79
2022-09-28T19:01:28.490Z,88.85
2022-09-28T19:03:55.928Z,89.23
2022-09-28T19:06:23.500Z,89.16
2022-09-28T19:08:52.565Z,88.89
2022-09-28T19:11:22.223Z,88.68
2022-09-28T19:13:49.781Z,88.80
2022-09-28T19:16:18.906Z,88.97
2022-09-28T19:18:46.597Z,89.13
2022-09-28T19:21:15.555Z,88.97
2022-09-28T19:23:49.023Z,89.25
2022-09-28T19:26:18.815Z,89.22
2022-09-28T19:28:47.711Z,88.78
2022-09-28T19:31:20.317Z,88.76
2022-09-28T19:33:48.407Z,88.62
2022-09-28T19:36:18.327Z,88.62
2022-09-28T19:38:46.426Z,88.73
2022-09-28T19:41:39.138Z,88.64
2022-09-28T19:44:13.030Z,88.95
2022-09-28T19:46:41.233Z,89.64
2022-09-28T19:49:10.776Z,90.17
2022-09-28T19:51:46.977Z,90.86
2022-09-28T19:54:33.095Z,90.73
2022-09-28T19:57:07.882Z,91.66
2022-09-28T19:59:37.189Z,91.34
2022-09-28T20:02:05.749Z,91.77
2022-09-28T20:04:33.309Z,91.93
2022-09-28T20:07:01.002Z,91.80
2022-09-28T20:09:28.558Z,92.00
2022-09-28T20:11:56.084Z,92.94
2022-09-28T20:14:26.020Z,93.14
2022-09-28T20:16:59.532Z,93.28
2022-09-28T20:19:27.121Z,92.90
2022-09-28T20:21:58.447Z,92.52
2022-09-28T20:24:26.168Z,92.08
2022-09-28T20:26:53.758Z,91.77
2022-09-28T20:29:21.361Z,91.49
2022-09-28T20:31:48.911Z,91.15
2022-09-28T20:34:18.114Z,91.14
2022-09-28T20:36:45.692Z,90.67
2022-09-28T20:39:13.687Z,90.49
2022-09-28T20:41:41.347Z,90.74
2022-09-28T20:44:09.877Z,91.42
2022-09-28T20:46:38.043Z,91.59
2022-09-28T20:49:07.026Z,91.94
2022-09-28T20:51:35.984Z,92.49
2022-09-28T20:54:03.545Z,93.12
2022-09-28T20:56:37.352Z,92.87
2022-09-28T20:59:05.159Z,93.61
2022-09-28T21:01:32.788Z,93.92
2022-09-28T21:04:01.807Z,93.82
2022-09-28T21:06:31.893Z,93.91
2022-09-28T21:09:00.843Z,94.53
2022-09-28T21:11:29.648Z,95.03
2022-09-28T21:13:58.867Z,94.99
2022-09-28T21:16:27.301Z,95.70
2022-09-28T21:18:54.973Z,96.31
2022-09-28T21:21:23.665Z,96.83
2022-09-28T21:23:53.681Z,97.03
2022-09-28T21:26:25.651Z,96.35
2022-09-28T21:28:53.427Z,96.74
2022-09-28T21:31:24.885Z,97.09
2022-09-28T21:33:56.067Z,97.08
2022-09-28T21:36:23.612Z,96.80
2022-09-28T21:38:51.326Z,96.75
2022-09-28T21:41:18.821Z,96.47
2022-09-28T21:43:47.868Z,95.71
2022-09-28T21:46:15.466Z,95.47
2022-09-28T21:48:43.041Z,95.77
2022-09-28T21:51:12.276Z,96.42
2022-09-28T21:53:39.926Z,96.46
2022-09-28T21:56:09.169Z,97.07
2022-09-28T21:58:37.141Z,97.12
2022-09-28T22:01:08.065Z,97.30
2022-09-28T22:03:36.942Z,97.30
2022-09-28T22:06:05.334Z,96.78
2022-09-28T22:08:33.231Z,96.43
2022-09-28T22:11:01.891Z,96.73
2022-09-28T22:13:29.537Z,97.04
2022-09-28T22:15:58.680Z,96.64
2022-09-28T22:18:29.254Z,96.73
2022-09-28T22:21:00.320Z,97.11
2022-09-28T22:23:27.992Z,96.36
2022-09-28T22:25:59.545Z,96.52
2022-09-28T22:28:27.227Z,97.17
2022-09-28T22:30:54.892Z,97.83
2022-09-28T22:33:22.452Z,97.90
2022-09-28T22:35:51.362Z,97.38
2022-09-28T22:38:19.189Z,96.00
2022-09-28T22:40:50.096Z,96.45
2022-09-28T22:43:18.656Z,98.09
2022-09-28T22:45:46.526Z,97.67
2022-09-28T22:48:14.376Z,98.09
2022-09-28T22:50:49.146Z,98.41
2022-09-28T22:53:18.097Z,98.49
2022-09-28T22:55:45.801Z,98.93
2022-09-28T22:58:13.709Z,98.60
2022-09-28T23:00:41.491Z,98.85
2022-09-28T23:03:09.028Z,98.68
2022-09-28T23:05:36.606Z,99.14
2022-09-28T23:08:04.209Z,99.63
2022-09-28T23:10:33.242Z,99.88
2022-09-28T23:13:00.762Z,100.00
2022-09-28T23:15:29.713Z,100.00
2022-09-28T23:17:57.643Z,100.00
2022-09-28T23:20:25.425Z,100.00
2022-09-28T23:22:52.950Z,100.00
2022-09-28T23:25:20.560Z,100.00
2022-09-28T23:27:50.767Z,100.00
2022-09-28T23:30:20.260Z,100.00
2022-09-28T23:32:47.792Z,100.00
2022-09-28T23:35:15.436Z,100.00
2022-09-28T23:37:42.996Z,100.00
2022-09-28T23:40:11.162Z,99.54
2022-09-28T23:42:38.687Z,99.44
2022-09-28T23:45:08.766Z,99.24
2022-09-28T23:47:37.286Z,99.19
2022-09-28T23:50:05.427Z,99.89
2022-09-28T23:52:33.116Z,100.00
2022-09-28T23:55:00.689Z,99.92
2022-09-28T23:57:28.334Z,100.00
2022-09-28T23:59:55.851Z,100.00
